Time;durP1;ratioP1;P1;durP2;ratioP2;P2;SDS_P1;SDS_P2;PMS_P1;PMS_P2;Temp;Humidity;BMP_temperature;BMP_pressure;BME280_temperature;BME280_humidity;BME280_pressure;Samples;Min_cycle;Max_cycle;Signal;HPM_P1;HPM_P2
2021/05/02 00:00:12;;;;;;;2.17;1.55;;;;;;;8.65;60.17;99032.50;2006956;81;20268;-83
2021/05/02 00:03:14;;;;;;;1.74;1.51;;;;;;;8.60;61.31;99026.47;2005341;81;20645;-82
2021/05/02 00:06:16;;;;;;;3.10;1.46;;;;;;;8.54;62.04;99026.50;2004003;81;20179;-83
2021/05/02 00:09:18;;;;;;;3.45;1.69;;;;;;;8.52;62.25;99029.09;2005239;81;20174;-82
2021/05/02 00:12:20;;;;;;;2.69;1.40;;;;;;;8.52;61.92;99031.66;2000966;81;20188;-83
2021/05/02 00:15:23;;;;;;;3.16;1.61;;;;;;;8.50;61.85;99038.56;2000433;81;20204;-83
2021/05/02 00:18:26;;;;;;;2.31;1.67;;;;;;;8.46;61.04;99034.28;2003057;81;20512;-83
2021/05/02 00:21:28;;;;;;;3.34;1.30;;;;;;;8.41;61.10;99031.69;2001356;81;20175;-82
2021/05/02 00:24:29;;;;;;;2.13;1.76;;;;;;;8.38;61.14;99028.25;2001559;81;20205;-82
2021/05/02 00:27:31;;;;;;;2.50;1.27;;;;;;;8.38;61.24;99033.41;1999667;81;20167;-82
2021/05/02 00:30:33;;;;;;;2.70;1.14;;;;;;;8.36;61.19;99035.16;2000891;79;23395;-82
2021/05/02 00:33:35;;;;;;;1.74;1.20;;;;;;;8.32;61.12;99038.56;2002810;81;20189;-81
2021/05/02 00:36:38;;;;;;;3.22;1.36;;;;;;;8.25;61.51;99024.75;2006945;81;20198;-82
2021/05/02 00:39:40;;;;;;;1.52;1.08;;;;;;;8.25;61.97;99035.13;2009763;81;20218;-82
2021/05/02 00:42:50;;;;;;;4.20;1.31;;;;;;;8.16;62.44;99027.38;2007056;81;20159;-83
2021/05/02 00:46:01;;;;;;;2.10;1.55;;;;;;;8.13;62.87;99040.31;2007335;79;22190;-82
2021/05/02 00:49:12;;;;;;;3.74;1.10;;;;;;;8.07;63.04;99046.31;2006022;81;20170;-82
2021/05/02 00:52:29;;;;;;;1.75;0.98;;;;;;;8.03;63.25;99043.75;2005261;81;20390;-81
2021/05/02 00:55:57;;;;;;;1.35;1.14;;;;;;;8.05;63.07;99039.44;2007103;81;20215;-82
2021/05/02 00:59:01;;;;;;;3.20;1.37;;;;;;;8.06;62.74;99038.56;2007399;81;20182;-83
2021/05/02 01:02:05;;;;;;;2.29;1.20;;;;;;;8.04;63.57;99042.88;2004961;78;22987;-83
2021/05/02 01:05:11;;;;;;;1.42;1.23;;;;;;;8.08;63.93;99047.22;2008089;81;20351;-84
2021/05/02 01:08:13;;;;;;;3.97;2.41;;;;;;;8.07;63.97;99041.16;2005129;81;20353;-82
2021/05/02 01:11:15;;;;;;;1.58;1.35;;;;;;;8.07;64.04;99038.56;2005776;81;20166;-82
2021/05/02 01:14:23;;;;;;;1.85;1.46;;;;;;;8.09;64.39;99046.34;2007703;81;20272;-82
2021/05/02 01:17:25;;;;;;;2.31;1.45;;;;;;;8.09;64.33;99044.63;2002949;78;23845;-81
2021/05/02 01:20:32;;;;;;;5.22;1.51;;;;;;;8.09;64.71;99052.38;2005724;81;20359;-82
2021/05/02 01:23:35;;;;;;;2.21;1.63;;;;;;;8.08;64.32;99047.22;2005981;81;20777;-82
2021/05/02 01:26:42;;;;;;;1.77;1.67;;;;;;;8.04;63.99;99048.06;2005126;81;20896;-82
2021/05/02 01:29:44;;;;;;;3.34;1.77;;;;;;;8.01;64.05;99056.69;2003283;81;20559;-81
2021/05/02 01:32:46;;;;;;;1.83;1.73;;;;;;;7.92;63.04;99051.50;2002494;78;22128;-80
2021/05/02 01:35:48;;;;;;;1.65;1.55;;;;;;;7.88;63.63;99068.72;2008521;81;20747;-83
2021/05/02 01:38:51;;;;;;;2.49;1.69;;;;;;;7.84;63.73;99063.56;2009928;81;20325;-82
2021/05/02 01:41:52;;;;;;;2.03;1.80;;;;;;;7.79;64.16;99067.88;2008583;81;20812;-82
2021/05/02 01:44:54;;;;;;;1.85;1.75;;;;;;;7.75;64.43;99073.91;2008014;81;20363;-82
2021/05/02 01:48:03;;;;;;;2.35;2.19;;;;;;;7.71;64.71;99070.41;2001734;78;28047;-83
2021/05/02 01:51:09;;;;;;;2.25;2.05;;;;;;;7.70;65.40;99070.41;2002048;81;20433;-83
2021/05/02 01:54:14;;;;;;;3.09;2.03;;;;;;;7.67;65.32;99070.41;2003487;81;20554;-83
2021/05/02 01:57:18;;;;;;;3.38;2.28;;;;;;;7.63;65.68;99074.72;2002261;81;20326;-82
2021/05/02 02:00:20;;;;;;;2.70;2.40;;;;;;;7.60;65.86;99074.72;2003128;78;22825;-84
2021/05/02 02:03:22;;;;;;;2.91;2.40;;;;;;;7.54;65.75;99082.44;2003263;81;20310;-82
2021/05/02 02:06:24;;;;;;;2.49;2.28;;;;;;;7.49;65.51;99085.00;2000836;81;20361;-83
2021/05/02 02:09:28;;;;;;;4.94;2.47;;;;;;;7.44;65.07;99091.03;2005250;81;20318;-82
2021/05/02 02:12:31;;;;;;;5.03;2.80;;;;;;;7.38;65.07;99084.13;2004890;81;20335;-81
2021/05/02 02:15:32;;;;;;;3.65;2.44;;;;;;;7.35;65.27;99094.44;2004128;81;20344;-84
2021/05/02 02:18:34;;;;;;;2.61;2.25;;;;;;;7.31;65.26;99097.88;2007555;81;20374;-83
2021/05/02 02:21:36;;;;;;;4.21;2.91;;;;;;;7.28;65.52;99097.84;2007063;81;20311;-85
2021/05/02 02:24:46;;;;;;;4.09;2.69;;;;;;;7.26;66.19;99102.16;2012257;81;20443;-84
2021/05/02 02:27:48;;;;;;;3.28;2.64;;;;;;;7.24;65.79;99102.16;2006664;81;20299;-81
2021/05/02 02:30:57;;;;;;;5.24;3.16;;;;;;;7.24;66.01;99102.16;2004167;81;21046;-83
2021/05/02 02:33:59;;;;;;;2.99;2.79;;;;;;;7.23;66.16;99104.72;2003078;81;20607;-83
2021/05/02 02:37:01;;;;;;;3.59;2.65;;;;;;;7.19;65.38;99109.03;1997861;81;20195;-83
2021/05/02 02:40:05;;;;;;;3.83;2.47;;;;;;;7.19;65.83;99110.75;1999550;81;20320;-82
2021/05/02 02:43:10;;;;;;;3.75;2.69;;;;;;;7.14;66.24;99109.84;1998664;81;20316;-83
2021/05/02 02:46:16;;;;;;;3.79;2.66;;;;;;;7.12;66.44;99114.13;2002061;79;26613;-84
2021/05/02 02:49:21;;;;;;;2.78;2.42;;;;;;;7.05;66.73;99115.84;2003501;81;20892;-82
2021/05/02 02:52:25;;;;;;;2.80;2.53;;;;;;;6.98;66.82;99121.81;2006586;81;20883;-81
2021/05/02 02:55:27;;;;;;;2.83;2.63;;;;;;;6.93;67.06;99118.34;2003795;81;20363;-82
2021/05/02 02:58:34;;;;;;;4.35;3.06;;;;;;;6.77;67.52;99121.69;2004184;81;20179;-85
2021/05/02 03:01:38;;;;;;;2.91;2.64;;;;;;;6.65;67.58;99130.22;2006766;81;20368;-83
2021/05/02 03:04:43;;;;;;;3.64;2.45;;;;;;;6.61;67.67;99134.47;2006522;81;20348;-83
2021/05/02 03:07:47;;;;;;;2.40;2.19;;;;;;;6.58;67.56;99138.75;2003573;81;20350;-81
2021/05/02 03:10:51;;;;;;;3.63;3.33;;;;;;;6.49;67.55;99131.81;2003943;81;20360;-82
2021/05/02 03:13:53;;;;;;;2.65;2.44;;;;;;;6.40;67.54;99144.63;2006303;81;20323;-83
2021/05/02 03:16:58;;;;;;;3.04;2.40;;;;;;;6.26;67.43;99144.50;2005578;81;20360;-85
2021/05/02 03:20:11;;;;;;;2.59;2.36;;;;;;;6.16;67.78;99147.88;2007040;81;20780;-82
2021/05/02 03:23:28;;;;;;;2.54;2.34;;;;;;;6.02;67.92;99152.00;2006001;81;20444;-84
2021/05/02 03:26:31;;;;;;;3.20;3.00;;;;;;;5.89;68.12;99165.59;2010419;81;20320;-83
2021/05/02 03:29:41;;;;;;;3.56;2.55;;;;;;;5.71;68.35;99166.25;2007971;81;20352;-84
2021/05/02 03:32:47;;;;;;;3.42;2.60;;;;;;;5.62;68.47;99177.31;2005988;79;20467;-83
2021/05/02 03:35:50;;;;;;;2.78;2.58;;;;;;;5.53;68.74;99181.47;2005183;81;20340;-81
2021/05/02 03:38:53;;;;;;;3.28;2.83;;;;;;;5.42;68.98;99177.09;2004683;81;20600;-83
2021/05/02 03:41:55;;;;;;;3.56;3.22;;;;;;;5.33;69.19;99178.66;2003397;81;20344;-83
2021/05/02 03:44:56;;;;;;;3.31;3.11;;;;;;;5.20;69.12;99182.78;2002724;81;20344;-82
2021/05/02 03:47:58;;;;;;;3.29;2.99;;;;;;;5.12;69.12;99177.53;2004125;79;21472;-82
2021/05/02 03:51:00;;;;;;;3.76;3.44;;;;;;;5.02;69.61;99182.50;2006748;81;20278;-81
2021/05/02 03:54:17;;;;;;;3.72;3.49;;;;;;;4.96;69.80;99185.00;2004164;81;20342;-83
2021/05/02 03:57:23;;;;;;;3.66;3.34;;;;;;;4.96;69.96;99195.31;2004957;81;20364;-83
2021/05/02 04:00:25;;;;;;;4.65;3.44;;;;;;;4.91;70.22;99189.22;1991897;79;20817;-77
2021/05/02 04:03:26;;;;;;;6.13;3.83;;;;;;;4.86;70.31;99189.16;1991205;81;20307;-77
2021/05/02 04:06:28;;;;;;;3.81;3.51;;;;;;;4.83;70.43;99196.81;1991138;81;20351;-77
2021/05/02 04:09:30;;;;;;;3.95;3.60;;;;;;;4.75;70.58;99201.00;1991127;81;20319;-78
2021/05/02 04:12:32;;;;;;;4.84;4.01;;;;;;;4.69;70.75;99206.91;1990813;81;20436;-77
2021/05/02 04:15:34;;;;;;;4.03;3.63;;;;;;;4.64;71.18;99216.22;1989426;79;20531;-77
2021/05/02 04:18:35;;;;;;;4.01;3.67;;;;;;;4.59;71.42;99217.88;1986068;81;20401;-77
2021/05/02 04:21:39;;;;;;;4.10;3.70;;;;;;;4.54;71.58;99216.94;1986321;81;20324;-77
2021/05/02 04:24:41;;;;;;;4.38;4.01;;;;;;;4.44;71.56;99215.91;1984922;81;20331;-77
2021/05/02 04:27:43;;;;;;;5.26;3.72;;;;;;;4.41;72.12;99226.13;1986363;81;20349;-78
2021/05/02 04:30:45;;;;;;;3.90;3.60;;;;;;;4.34;72.29;99226.88;1986277;79;21819;-77
2021/05/02 04:33:47;;;;;;;5.89;4.24;;;;;;;4.30;71.69;99230.22;1993116;81;20839;-77
2021/05/02 04:36:50;;;;;;;4.45;3.76;;;;;;;4.25;71.62;99243.00;1996397;81;20902;-77
2021/05/02 04:39:52;;;;;;;4.00;3.64;;;;;;;4.24;71.68;99240.41;1996161;81;20317;-77
2021/05/02 04:42:54;;;;;;;5.28;3.86;;;;;;;4.23;71.65;99242.09;1996190;81;20335;-77
2021/05/02 04:45:56;;;;;;;4.29;3.89;;;;;;;4.23;71.76;99243.81;1994744;79;35171;-77
2021/05/02 04:48:57;;;;;;;4.24;3.91;;;;;;;4.25;71.74;99254.97;1996385;81;20347;-76
2021/05/02 04:51:59;;;;;;;4.63;4.22;;;;;;;4.24;71.56;99255.81;1995404;81;20911;-78
2021/05/02 04:55:01;;;;;;;5.32;4.01;;;;;;;4.24;71.76;99259.25;1995961;81;21529;-76
2021/05/02 04:58:05;;;;;;;5.65;4.49;;;;;;;4.28;71.99;99267.88;1995331;81;20310;-76
2021/05/02 05:01:08;;;;;;;5.44;3.92;;;;;;;4.31;71.97;99267.97;1993244;79;22746;-76
2021/05/02 05:04:10;;;;;;;5.10;4.29;;;;;;;4.34;72.02;99265.44;1990928;81;20363;-77
2021/05/02 05:07:11;;;;;;;4.59;4.20;;;;;;;4.39;72.16;99271.53;1990908;81;20366;-76
2021/05/02 05:10:14;;;;;;;4.39;4.04;;;;;;;4.42;72.57;99281.84;1991102;81;20403;-77
2021/05/02 05:13:15;;;;;;;4.89;4.49;;;;;;;4.47;72.71;99287.94;1990836;81;20334;-77
2021/05/02 05:16:17;;;;;;;4.72;4.26;;;;;;;4.51;72.52;99289.75;1992290;79;23678;-77
2021/05/02 05:19:19;;;;;;;4.60;4.20;;;;;;;4.59;72.59;99295.00;1995674;81;20354;-77
2021/05/02 05:22:21;;;;;;;4.10;3.69;;;;;;;4.72;72.71;99296.09;1995985;81;20334;-77
2021/05/02 05:25:23;;;;;;;4.03;3.72;;;;;;;4.85;72.77;99298.06;1996465;81;20321;-76
2021/05/02 05:28:24;;;;;;;4.40;3.81;;;;;;;5.01;72.49;99300.00;1995821;81;20329;-77
2021/05/02 05:31:26;;;;;;;3.90;3.60;;;;;;;5.29;71.74;99314.19;1992320;79;22667;-77
2021/05/02 05:34:28;;;;;;;3.10;2.90;;;;;;;5.97;69.69;99319.47;1990794;81;20459;-77
2021/05/02 05:37:29;;;;;;;4.00;3.30;;;;;;;6.48;68.14;99313.22;1990466;81;20359;-77
2021/05/02 05:40:32;;;;;;;4.59;3.03;;;;;;;6.82;66.87;99324.75;1991859;81;20440;-76
2021/05/02 05:43:33;;;;;;;2.90;2.65;;;;;;;7.08;66.32;99317.22;1991563;81;20326;-77
2021/05/02 05:46:35;;;;;;;4.18;2.79;;;;;;;7.19;66.04;99319.91;1989889;78;24175;-76
2021/05/02 05:49:38;;;;;;;3.24;3.04;;;;;;;7.31;65.89;99324.25;1991158;81;20204;-76
2021/05/02 05:52:44;;;;;;;3.99;3.61;;;;;;;7.65;64.16;99318.47;1991134;81;20198;-77
2021/05/02 05:55:45;;;;;;;4.11;3.81;;;;;;;7.91;62.39;99326.41;1991408;81;20228;-77
2021/05/02 05:58:47;;;;;;;4.69;4.09;;;;;;;8.25;61.46;99327.38;1991561;81;20641;-76
2021/05/02 06:01:49;;;;;;;4.55;4.13;;;;;;;8.59;60.59;99327.53;1990429;79;22120;-76
2021/05/02 06:04:51;;;;;;;4.20;3.79;;;;;;;8.89;58.43;99337.94;1991085;81;20220;-76
2021/05/02 06:07:52;;;;;;;4.82;4.30;;;;;;;9.20;57.77;99337.97;1991350;81;20208;-76
2021/05/02 06:10:54;;;;;;;7.64;4.99;;;;;;;9.49;57.04;99344.00;1991338;81;20179;-77
2021/05/02 06:13:57;;;;;;;5.29;4.85;;;;;;;9.72;54.86;99331.03;1991710;81;20211;-76
2021/05/02 06:16:58;;;;;;;5.09;4.70;;;;;;;10.12;53.79;99344.75;1990391;78;23775;-77
2021/05/02 06:20:00;;;;;;;6.66;5.90;;;;;;;10.33;52.88;99343.84;1991929;81;20175;-77
2021/05/02 06:23:02;;;;;;;5.76;4.94;;;;;;;10.70;52.12;99343.66;1991456;81;20649;-76
2021/05/02 06:26:03;;;;;;;5.66;5.06;;;;;;;10.99;50.27;99343.47;1990911;81;20205;-76
2021/05/02 06:29:05;;;;;;;7.72;5.49;;;;;;;11.26;49.98;99342.41;1991825;81;20662;-77
2021/05/02 06:32:07;;;;;;;5.97;5.38;;;;;;;11.48;50.00;99347.41;1990818;79;23060;-77
2021/05/02 06:35:09;;;;;;;6.56;5.46;;;;;;;11.71;49.84;99357.59;1995236;81;21029;-77
2021/05/02 06:38:11;;;;;;;10.80;5.61;;;;;;;11.91;49.42;99361.78;1996937;81;20192;-77
2021/05/02 06:41:13;;;;;;;10.82;6.15;;;;;;;11.95;48.57;99363.47;1996327;81;20309;-76
2021/05/02 06:44:14;;;;;;;6.95;6.22;;;;;;;11.95;48.31;99369.53;1997402;81;20232;-77
2021/05/02 06:47:16;;;;;;;8.86;5.99;;;;;;;12.03;48.03;99364.25;1975756;81;1630220;-76
2021/05/02 06:50:18;;;;;;;6.16;5.35;;;;;;;12.14;47.63;99365.00;1990799;81;20180;-77
2021/05/02 06:53:20;;;;;;;7.36;5.65;;;;;;;12.13;46.92;99368.47;1991472;81;20192;-77
2021/05/02 06:56:22;;;;;;;8.07;5.38;;;;;;;12.14;47.60;99369.34;1992195;81;20304;-77
2021/05/02 06:59:24;;;;;;;7.11;6.16;;;;;;;12.33;47.26;99365.63;1991648;81;20645;-77
2021/05/02 07:02:26;;;;;;;6.74;6.16;;;;;;;12.45;46.33;99375.06;1996348;78;20163;-75
2021/05/02 07:05:27;;;;;;;7.32;5.69;;;;;;;12.52;45.58;99374.09;1996637;81;20292;-76
2021/05/02 07:08:31;;;;;;;6.39;5.79;;;;;;;12.56;45.78;99388.78;1997173;81;20182;-76
2021/05/02 07:11:48;;;;;;;5.99;5.44;;;;;;;12.34;46.37;99380.38;1997845;81;20174;-78
2021/05/02 07:14:59;;;;;;;5.86;5.04;;;;;;;12.22;46.80;99383.16;2000106;81;20212;-81
2021/05/02 07:18:01;;;;;;;5.71;5.21;;;;;;;12.00;47.66;99387.69;1989325;81;925604;-75
2021/05/02 07:21:05;;;;;;;6.61;5.22;;;;;;;11.65;47.60;99390.59;1998773;81;20197;-83
2021/05/02 07:24:08;;;;;;;6.85;5.76;;;;;;;11.55;48.79;99396.78;1998361;81;20194;-81
2021/05/02 07:27:16;;;;;;;7.60;5.60;;;;;;;11.60;48.73;99389.78;1998485;81;20135;-81
2021/05/02 07:30:37;;;;;;;5.91;5.41;;;;;;;11.62;48.86;99390.63;2034649;71;20216;-78
2021/05/02 07:33:43;;;;;;;6.49;5.61;;;;;;;12.12;47.34;99395.38;2011778;80;20197;-83
2021/05/02 07:36:45;;;;;;;5.89;5.39;;;;;;;12.28;47.38;99396.09;2008990;80;20206;-78
2021/05/02 07:39:49;;;;;;;6.80;4.95;;;;;;;11.94;47.05;99399.03;2009233;80;20223;-80
2021/05/02 07:42:57;;;;;;;5.85;5.34;;;;;;;11.77;46.44;99396.56;2011524;80;20670;-81
2021/05/02 07:46:07;;;;;;;6.91;5.24;;;;;;;11.80;46.95;99401.75;2008633;80;20258;-77
2021/05/02 07:49:09;;;;;;;5.25;4.75;;;;;;;12.26;47.35;99401.31;2008808;80;20555;-76
2021/05/02 07:52:11;;;;;;;6.53;5.94;;;;;;;12.60;46.53;99395.72;2010601;80;20208;-77
2021/05/02 07:55:13;;;;;;;5.05;4.70;;;;;;;12.88;45.80;99404.00;2010055;80;20976;-76
2021/05/02 07:58:17;;;;;;;5.96;4.88;;;;;;;13.32;44.78;99413.00;2008833;80;20177;-82
2021/05/02 08:01:23;;;;;;;7.57;4.66;;;;;;;13.61;44.27;99406.41;2006681;78;27142;-80
2021/05/02 08:04:25;;;;;;;6.68;4.43;;;;;;;13.76;43.55;99399.22;2007072;80;20181;-78
2021/05/02 08:07:27;;;;;;;8.36;4.84;;;;;;;13.31;41.29;99414.75;2009025;80;20199;-78
2021/05/02 08:10:28;;;;;;;4.43;4.06;;;;;;;13.60;42.79;99406.44;2008819;80;20188;-79
2021/05/02 08:13:30;;;;;;;6.88;4.78;;;;;;;13.45;39.98;99406.69;2008867;80;20209;-80
2021/05/02 08:16:33;;;;;;;4.79;3.99;;;;;;;13.53;40.50;99413.50;2004089;78;29920;-78
2021/05/02 08:19:35;;;;;;;5.03;4.25;;;;;;;13.45;40.65;99410.16;2001117;81;20659;-76
2021/05/02 08:22:37;;;;;;;3.58;3.29;;;;;;;13.68;40.29;99411.53;2001171;81;20318;-75
2021/05/02 08:25:38;;;;;;;3.86;2.44;;;;;;;13.97;39.94;99409.28;2001373;81;20800;-76
2021/05/02 08:28:41;;;;;;;2.51;2.28;;;;;;;13.85;39.41;99414.72;2001624;81;20278;-75
2021/05/02 08:31:44;;;;;;;2.80;2.60;;;;;;;14.19;39.55;99417.59;2003214;80;21700;-75
2021/05/02 08:34:45;;;;;;;2.28;2.08;;;;;;;14.26;38.24;99408.75;2010290;80;20292;-76
2021/05/02 08:37:47;;;;;;;1.84;1.74;;;;;;;14.50;37.94;99412.66;2006086;80;20192;-76
2021/05/02 08:40:50;;;;;;;2.91;2.59;;;;;;;14.76;38.78;99406.91;2006103;80;20206;-76
2021/05/02 08:43:54;;;;;;;2.56;2.36;;;;;;;15.00;37.18;99405.50;2006767;80;20184;-76
2021/05/02 08:46:56;;;;;;;2.54;2.15;;;;;;;14.84;37.01;99406.75;2001988;78;20763;-75
2021/05/02 08:49:58;;;;;;;2.38;1.58;;;;;;;14.95;37.16;99410.84;1999785;81;20192;-75
2021/05/02 08:53:00;;;;;;;1.42;1.33;;;;;;;15.13;37.03;99416.56;2001701;81;20191;-77
2021/05/02 08:56:03;;;;;;;1.75;1.65;;;;;;;15.22;34.85;99421.56;2001230;81;20185;-76
2021/05/02 08:59:07;;;;;;;1.55;1.35;;;;;;;14.91;34.72;99418.81;2001800;81;20178;-76
2021/05/02 09:02:21;;;;;;;1.38;1.27;;;;;;;14.59;34.98;99417.72;2002516;78;21951;-76
2021/05/02 09:05:23;;;;;;;1.26;1.16;;;;;;;14.99;34.38;99409.03;2006231;80;20946;-76
2021/05/02 09:08:32;;;;;;;1.90;1.20;;;;;;;15.04;34.86;99418.47;2006736;80;20223;-75
2021/05/02 09:11:39;;;;;;;1.39;1.25;;;;;;;15.32;34.93;99420.50;2006538;80;20751;-75
2021/05/02 09:14:41;;;;;;;1.20;1.10;;;;;;;15.56;34.08;99417.28;2006716;80;20245;-76
2021/05/02 09:17:58;;;;;;;1.74;1.13;;;;;;;15.68;32.52;99416.16;2001587;78;20459;-76
2021/05/02 09:21:01;;;;;;;1.13;0.88;;;;;;;15.39;31.83;99430.75;2002143;81;20651;-77
2021/05/02 09:24:07;;;;;;;2.38;1.91;;;;;;;14.87;34.13;99417.97;2002019;81;20340;-76
2021/05/02 09:27:11;;;;;;;1.70;1.30;;;;;;;15.03;34.00;99418.50;2002098;81;20177;-76
2021/05/02 09:30:17;;;;;;;1.30;1.20;;;;;;;15.36;33.04;99424.75;2001995;78;21079;-76
2021/05/02 09:33:26;;;;;;;1.11;0.98;;;;;;;15.59;33.19;99424.22;2006961;80;20169;-75
2021/05/02 09:36:28;;;;;;;2.26;1.06;;;;;;;15.86;32.95;99430.56;2007316;80;20173;-75
2021/05/02 09:39:55;;;;;;;1.50;1.01;;;;;;;16.13;31.92;99416.72;2011117;80;20197;-77
2021/05/02 09:42:57;;;;;;;1.00;0.94;;;;;;;16.14;31.03;99422.81;2007109;80;20195;-77
2021/05/02 09:46:30;;;;;;;0.94;0.90;;;;;;;15.54;31.50;99432.16;2005561;78;20337;-75
2021/05/02 09:49:32;;;;;;;1.31;1.00;;;;;;;15.51;32.33;99427.00;2008170;80;20182;-78
2021/05/02 09:52:44;;;;;;;1.25;1.15;;;;;;;16.00;32.62;99423.22;2007656;80;20192;-78
2021/05/02 09:55:46;;;;;;;1.26;0.90;;;;;;;16.32;31.65;99424.94;2008289;80;20165;-78
2021/05/02 09:58:48;;;;;;;1.21;1.10;;;;;;;16.67;32.79;99424.00;2007072;80;20274;-77
2021/05/02 10:02:18;;;;;;;1.64;1.00;;;;;;;16.59;31.01;99441.69;2002304;78;21816;-76
2021/05/02 10:05:20;;;;;;;1.00;0.89;;;;;;;16.08;30.05;99434.34;2000792;81;20205;-78
2021/05/02 10:08:25;;;;;;;1.56;1.06;;;;;;;15.83;31.80;99431.50;2002998;81;20213;-77
2021/05/02 10:11:28;;;;;;;1.35;0.85;;;;;;;15.55;30.56;99441.72;1998039;81;20193;-78
2021/05/02 10:14:29;;;;;;;1.09;1.02;;;;;;;15.63;31.66;99423.28;2002081;81;20256;-78
2021/05/02 10:17:31;;;;;;;1.38;1.20;;;;;;;16.01;31.24;99435.41;2007042;78;25469;-76
2021/05/02 10:20:32;;;;;;;1.31;1.19;;;;;;;16.25;29.61;99442.63;2007728;80;20603;-78
2021/05/02 10:23:35;;;;;;;2.54;1.31;;;;;;;16.25;29.75;99432.13;2009044;80;20212;-77
2021/05/02 10:26:37;;;;;;;3.35;1.83;;;;;;;16.20;29.59;99434.03;2008298;80;20177;-77
2021/05/02 10:29:41;;;;;;;3.69;1.29;;;;;;;16.40;30.15;99443.09;2009007;80;20173;-78
2021/05/02 10:32:49;;;;;;;2.29;1.45;;;;;;;16.67;30.95;99438.88;2003357;78;28689;-79
2021/05/02 10:35:55;;;;;;;3.49;1.32;;;;;;;16.77;31.18;99443.81;2002715;81;20776;-76
2021/05/02 10:39:02;;;;;;;2.08;1.56;;;;;;;16.80;31.94;99446.34;2002031;80;20166;-77
2021/05/02 10:42:52;;;;;;;1.73;1.45;;;;;;;16.90;31.63;99452.22;2002084;81;20301;-77
2021/05/02 10:45:55;;;;;;;2.13;0.99;;;;;;;16.69;29.34;99445.78;2003768;79;22401;-78
2021/05/02 10:48:58;;;;;;;1.54;1.16;;;;;;;16.92;30.16;99442.53;2007735;80;20328;-78
2021/05/02 10:52:29;;;;;;;1.70;1.60;;;;;;;16.96;29.82;99448.53;2008792;80;20165;-78
2021/05/02 10:56:06;;;;;;;3.03;1.20;;;;;;;17.31;28.92;99440.47;2009909;80;20197;-77
2021/05/02 10:59:08;;;;;;;1.98;1.20;;;;;;;16.96;29.31;99454.66;2007593;80;20223;-80
2021/05/02 11:05:47;;;;;;;2.22;1.35;;;;;;;16.00;31.29;99450.25;2014271;71;20327;-81
2021/05/02 11:08:50;;;;;;;1.20;1.19;;;;;;;15.84;30.32;99458.53;2006404;81;20212;-80
2021/05/02 11:11:54;;;;;;;1.48;1.38;;;;;;;15.37;31.43;99457.88;2004371;81;20179;-80
2021/05/02 11:14:55;;;;;;;1.66;1.30;;;;;;;15.28;31.23;99456.34;2004609;81;20174;-81
2021/05/02 11:17:58;;;;;;;2.17;1.41;;;;;;;15.67;31.91;99457.19;2009674;79;56431;-85
2021/05/02 11:21:00;;;;;;;1.94;1.10;;;;;;;16.09;30.58;99449.16;2011786;81;20182;-80
2021/05/02 11:24:03;;;;;;;1.20;1.10;;;;;;;15.92;31.01;99456.56;2009000;81;20182;-81
2021/05/02 11:30:18;;;;;;;2.95;1.10;;;;;;;15.68;32.40;99464.16;2007749;81;20264;-81
2021/05/02 11:33:24;;;;;;;1.75;1.05;;;;;;;16.16;30.09;99458.59;2008682;81;20216;-82
2021/05/02 11:36:40;;;;;;;1.20;1.10;;;;;;;16.17;29.25;99464.69;2006739;81;20193;-82
2021/05/02 11:39:41;;;;;;;2.28;1.40;;;;;;;15.81;28.40;99474.34;2007702;81;20175;-82
2021/05/02 11:43:16;;;;;;;1.41;1.10;;;;;;;15.65;29.19;99474.69;2007413;81;20166;-75
2021/05/02 11:46:23;;;;;;;2.05;1.30;;;;;;;15.26;30.18;99484.28;1992024;78;21177;-75
2021/05/02 11:49:34;;;;;;;1.33;1.20;;;;;;;14.78;31.61;99478.31;1989500;81;20184;-75
2021/05/02 11:52:48;;;;;;;1.41;1.20;;;;;;;14.93;32.33;99485.00;1990520;81;20183;-78
2021/05/02 11:55:50;;;;;;;1.90;1.70;;;;;;;15.64;33.71;99472.13;1990201;81;20256;-79
2021/05/02 11:58:54;;;;;;;1.41;1.33;;;;;;;16.07;32.02;99484.16;2003650;81;20182;-85
2021/05/02 12:01:56;;;;;;;3.45;1.98;;;;;;;16.07;32.86;99490.25;1994711;78;23903;-76
2021/05/02 12:05:02;;;;;;;1.79;1.69;;;;;;;15.70;32.43;99488.53;1998758;81;20223;-76
2021/05/02 12:08:12;;;;;;;2.56;1.70;;;;;;;15.47;32.06;99493.41;2000594;81;20190;-76
2021/05/02 12:11:14;;;;;;;1.58;1.40;;;;;;;15.45;32.45;99492.59;2000097;81;20199;-76
2021/05/02 12:14:22;;;;;;;1.54;1.44;;;;;;;15.73;33.55;99486.72;1999818;81;20194;-75
2021/05/02 12:17:23;;;;;;;1.61;1.40;;;;;;;15.66;32.85;99491.25;1995411;79;20181;-75
2021/05/02 12:20:27;;;;;;;2.21;1.59;;;;;;;15.73;32.01;99489.34;1994185;81;20235;-75
2021/05/02 12:23:28;;;;;;;3.14;2.94;;;;;;;16.37;29.78;99486.00;1994842;81;20216;-76
2021/05/02 12:26:36;;;;;;;5.88;4.81;;;;;;;17.09;31.59;99494.50;1996388;81;20468;-80
2021/05/02 12:29:40;;;;;;;2.01;1.91;;;;;;;17.72;29.49;99486.44;2004664;81;20273;-77
2021/05/02 12:32:46;;;;;;;1.98;1.84;;;;;;;17.85;30.69;99489.53;1995026;78;21010;-78
2021/05/02 12:35:48;;;;;;;1.73;1.63;;;;;;;17.97;27.72;99493.56;2004616;81;20177;-76
2021/05/02 12:39:04;;;;;;;1.85;1.75;;;;;;;17.90;28.54;99490.25;1999970;81;20177;-76
2021/05/02 12:42:07;;;;;;;2.24;1.71;;;;;;;17.75;27.58;99494.22;2000311;81;20624;-81
2021/05/02 12:45:11;;;;;;;2.44;1.66;;;;;;;17.89;27.89;99485.03;1995851;81;20221;-78
2021/05/02 12:48:31;;;;;;;4.25;2.31;;;;;;;17.33;28.94;99496.41;1995497;79;20720;-76
2021/05/02 12:51:33;;;;;;;6.03;2.80;;;;;;;16.80;31.08;99500.56;1996288;81;20251;-78
2021/05/02 12:54:35;;;;;;;2.80;2.45;;;;;;;16.12;33.12;99513.69;1996884;81;20208;-79
2021/05/02 12:57:38;;;;;;;4.50;2.61;;;;;;;15.62;33.79;99508.78;1996176;81;20325;-77
2021/05/02 13:00:53;;;;;;;1.61;1.51;;;;;;;15.70;35.13;99504.22;1995334;79;21952;-78
2021/05/02 13:03:58;;;;;;;2.28;1.95;;;;;;;15.58;32.12;99506.22;2000274;81;21283;-76
2021/05/02 13:06:59;;;;;;;2.55;1.75;;;;;;;15.52;31.87;99509.84;2000687;81;20769;-78
2021/05/02 13:10:24;;;;;;;3.38;1.99;;;;;;;15.79;33.58;99489.19;2000341;81;20206;-76
2021/05/02 13:13:25;;;;;;;2.31;2.13;;;;;;;15.82;34.19;99491.75;1998087;81;20166;-77
2021/05/02 13:16:41;;;;;;;2.49;2.29;;;;;;;16.11;32.73;99485.78;1997129;78;20325;-78
2021/05/02 13:19:46;;;;;;;2.45;2.25;;;;;;;16.31;32.75;99491.38;1996511;81;20194;-77
2021/05/02 13:22:53;;;;;;;2.22;2.13;;;;;;;16.09;32.58;99488.44;1996284;81;20256;-77
2021/05/02 13:26:10;;;;;;;2.53;2.08;;;;;;;16.13;31.92;99484.84;1996838;81;20628;-77
2021/05/02 13:29:14;;;;;;;1.98;1.88;;;;;;;16.46;31.63;99475.25;1997127;81;20224;-79
2021/05/02 13:32:18;;;;;;;2.29;1.81;;;;;;;16.31;31.72;99488.75;1998291;79;20200;-78
2021/05/02 13:35:20;;;;;;;3.00;1.61;;;;;;;16.21;31.68;99484.66;1996783;81;20891;-77
2021/05/02 13:38:22;;;;;;;3.20;2.20;;;;;;;16.00;33.17;99491.31;1996563;81;20228;-78
2021/05/02 13:41:23;;;;;;;2.44;1.95;;;;;;;15.87;31.64;99482.88;1996363;81;20158;-77
2021/05/02 13:44:28;;;;;;;2.45;2.22;;;;;;;16.27;32.56;99474.88;1996808;81;20189;-76
2021/05/02 13:47:30;;;;;;;2.22;1.75;;;;;;;16.82;31.39;99480.41;1999591;78;23352;-76
2021/05/02 13:50:32;;;;;;;2.41;2.10;;;;;;;17.18;31.21;99476.72;2001142;81;20191;-77
2021/05/02 13:53:38;;;;;;;1.61;1.51;;;;;;;17.67;30.48;99469.94;2002100;81;20704;-77
2021/05/02 13:56:40;;;;;;;2.21;2.11;;;;;;;17.75;30.22;99475.84;2002912;81;20240;-79
2021/05/02 13:59:41;;;;;;;2.69;2.10;;;;;;;17.43;29.83;99492.59;2004120;81;20212;-79
2021/05/02 14:02:46;;;;;;;3.44;2.20;;;;;;;16.61;31.32;99500.19;1996534;78;20511;-81
2021/05/02 14:05:48;;;;;;;3.46;2.16;;;;;;;16.01;35.03;99517.47;1997609;81;20226;-77
2021/05/02 14:08:51;;;;;;;2.53;1.95;;;;;;;15.14;39.96;99534.22;1997411;81;20193;-77
2021/05/02 14:11:53;;;;;;;2.03;1.66;;;;;;;14.46;42.81;99528.56;1996808;81;20231;-77
2021/05/02 14:14:54;;;;;;;1.42;1.33;;;;;;;14.01;40.87;99519.75;1995807;81;20186;-78
2021/05/02 14:17:56;;;;;;;1.41;1.31;;;;;;;13.90;44.11;99520.78;2001378;78;20502;-77
2021/05/02 14:20:58;;;;;;;1.89;1.79;;;;;;;13.72;43.41;99528.03;2001533;81;20287;-77
2021/05/02 14:24:00;;;;;;;3.95;2.11;;;;;;;13.75;46.51;99518.41;2000985;81;20564;-78
2021/05/02 14:27:02;;;;;;;3.80;2.59;;;;;;;13.84;46.58;99530.47;2001388;81;20186;-77
2021/05/02 14:30:04;;;;;;;1.90;1.80;;;;;;;13.89;47.15;99529.50;2001845;81;20166;-79
2021/05/02 14:33:06;;;;;;;2.24;2.13;;;;;;;14.19;44.56;99528.16;1997183;81;20489;-78
2021/05/02 14:36:08;;;;;;;2.41;2.21;;;;;;;14.72;44.26;99518.53;1996748;81;20208;-78
2021/05/02 14:39:09;;;;;;;2.84;1.89;;;;;;;15.19;44.02;99527.13;1997271;81;20687;-78